Airfield :
LOGIN :

Register | Disclaimer

   EN    FR    IT 

 










Legend :    VFR   Marginal VFR   IFR   Intensive IFR   Very Intensive IFR
Visi :
Ceiling :
>= 8 km
>= 3000ft
5 to 8 km
1000 to 3000 ft
1500m to 5 km
500 to 1000 ft
800 to 1500m
200 to 500 ft
< 800m
< 200 ft
Symbols :   Thunderstorms  Fog  Heavy snow  Heavy precipitations  Wind > 20 kt
SIGMETs :     Misc.  Thunderstorms  Icing  Turbulence  Mountain Waves  Volcanic Ashes







- Airport Elevation : 65 ft
- IATA code : PIK
- Download approach charts


EGPK - Glasgow Prestwick

EXPIRED METARs :
  • 241420Z 27020KT 9999 FEW027 SCT043 15/07 Q1008
  • 241350Z 27020KT 9999 FEW027 SCT043 15/08 Q1008
  • 241320Z 28021KT 9999 FEW027 SCT043 15/08 Q1009
  • 241250Z 27017KT 9999 FEW030 SCT045 14/07 Q1009
  • 241220Z 26015KT 9999 FEW030 SCT045 14/08 Q1009
  • 241150Z 26016KT 9999 FEW030 SCT045 14/08 Q1009

TAF TAF EGPK
Valid from the 24 at 12:00 until the 25 at 12:00 UTC


241058Z 2412/2512 27017KT 9999 SCT045
TEMPO 2412/2503 28020G30KT
PROB30
TEMPO 2412/2418 8000 -SHRA
PROB30
TEMPO 2506/2512 6000 SHRA
No reported NOTAMs for that airfield.
4 SIGMETs reported for the Scottish FIR (EGPX) :
 
Severe turbulence
EGPX SIGMET 10 VALID 242200/250200 EGRR
EGPX SCOTTISH FIR SEV TURB FCST WI N6010 W00031 - N5820 E00128 - N5811 W00348 - N5847 W00500 - N6014 W00159 - N6010 W00031 SFC/FL060 MOV ESE 10KT WKN=
Severe mountain waves
EGPX SIGMET 09 VALID 242200/250200 EGRR
EGPX SCOTTISH FIR SEV MTW FCST WI N5743 E00016 - N5513 E00046 - N5541 W00440 - N5824 W00444 - N5743 E00016 FL030/180 STNR WKN=
Severe turbulence
EGPX SIGMET 02 VALID 250200/250600 EGRR
EGPX SCOTTISH FIR SEV TURB FCST WI N6000 E00000 - N5903 E00135 - N5855 E00149 - N5858 W00333 - N6008 W00259 - N6021 E00000 - N6000 E00000 SFC/FL060 MOV SE 10KT WKN=
Severe mountain waves
EGPX SIGMET 01 VALID 250200/250600 EGRR
EGPX SCOTTISH FIR SEV MTW FCST WI N5820 E00021 - N5510 E00130 - N5521 W00343 - N5834 W00435 - N5820 E00021 FL030/180 STNR WKN=



MET'MAP, your aeronautical weather chart ! - Copyright ORBIFLY December 2007 - Disclaimer

ORBIFLY MET'MAP TEAM :

Programming & Development : Alexandra Zaïnal
Concept & Development : Baudouin d'Aumeries
Co-Development & Prog : Marc-Olivier Méhu
Technical & hardware support : Manuel Goepfert

Contact : metmap@orbifly.com




SOURCES & CREDITS :

   NOAA